createdAt,value
2019-03-16T00:01:13.358Z,10.40
2019-03-16T00:03:40.192Z,10.40
2019-03-16T00:06:06.938Z,10.40
2019-03-16T00:08:33.689Z,10.40
2019-03-16T00:11:00.965Z,10.30
2019-03-16T00:18:21.457Z,10.30
2019-03-16T00:20:48.447Z,10.30
2019-03-16T00:23:15.356Z,10.20
2019-03-16T00:25:42.115Z,10.20
2019-03-16T00:28:09.013Z,10.30
2019-03-16T00:30:35.746Z,10.30
2019-03-16T00:33:02.486Z,10.40
2019-03-16T00:35:29.233Z,10.40
2019-03-16T00:37:56.225Z,10.40
2019-03-16T00:40:23.085Z,10.40
2019-03-16T00:42:50.333Z,10.40
2019-03-16T00:45:17.433Z,10.50
2019-03-16T00:47:44.605Z,10.50
2019-03-16T00:50:11.639Z,10.40
2019-03-16T00:55:05.831Z,10.50
2019-03-16T00:57:32.675Z,10.50
2019-03-16T00:59:59.449Z,10.50
2019-03-16T01:02:27.516Z,11.10
2019-03-16T01:04:54.521Z,10.50
2019-03-16T01:07:21.348Z,10.50
2019-03-16T01:09:48.333Z,10.50
2019-03-16T01:19:35.942Z,10.40
2019-03-16T01:26:56.534Z,10.30
2019-03-16T01:29:23.609Z,10.30
2019-03-16T01:31:50.348Z,10.20
2019-03-16T01:34:17.349Z,10.20
2019-03-16T01:36:44.090Z,10.10
2019-03-16T01:39:10.817Z,10.10
2019-03-16T01:41:37.558Z,10.00
2019-03-16T01:44:04.638Z,9.90
2019-03-16T01:46:31.383Z,9.90
2019-03-16T01:48:58.220Z,10.00
2019-03-16T01:53:52.318Z,10.00
2019-03-16T01:56:19.078Z,9.90
2019-03-16T01:58:45.813Z,9.90
2019-03-16T02:01:12.789Z,9.90
2019-03-16T02:03:39.766Z,9.90
2019-03-16T02:06:06.521Z,9.90
2019-03-16T02:08:33.385Z,10.00
2019-03-16T02:11:00.157Z,10.00
2019-03-16T02:13:26.900Z,10.00
2019-03-16T02:15:53.757Z,10.10
2019-03-16T02:20:47.618Z,10.10
2019-03-16T02:23:14.362Z,10.00
2019-03-16T02:25:41.231Z,10.00
2019-03-16T02:28:08.436Z,10.00
2019-03-16T02:30:35.196Z,10.00
2019-03-16T02:33:12.698Z,10.00
2019-03-16T02:35:30.751Z,10.00
2019-03-16T02:37:57.909Z,10.00
2019-03-16T02:40:24.685Z,9.90
2019-03-16T02:42:51.434Z,9.90
2019-03-16T02:45:18.169Z,10.00
2019-03-16T02:50:14.406Z,10.00
2019-03-16T02:52:41.661Z,10.00
2019-03-16T02:55:08.609Z,10.00
2019-03-16T02:57:35.459Z,10.20
2019-03-16T03:14:45.784Z,10.30
2019-03-16T03:17:12.750Z,10.30
2019-03-16T03:22:06.396Z,10.30
2019-03-16T03:27:00.314Z,10.20
2019-03-16T03:29:27.062Z,10.20
2019-03-16T03:36:48.218Z,10.40
2019-03-16T03:39:15.203Z,10.40
2019-03-16T03:41:42.063Z,10.30
2019-03-16T03:44:09.009Z,10.30
2019-03-16T04:16:00.774Z,10.40
2019-03-16T04:18:27.776Z,10.40
2019-03-16T04:20:54.502Z,10.30
2019-03-16T04:23:21.266Z,10.30
2019-03-16T04:25:48.113Z,10.30
2019-03-16T04:28:14.850Z,9.90
2019-03-16T04:30:41.845Z,9.40
2019-03-16T04:33:08.605Z,9.10
2019-03-16T04:35:35.347Z,8.80
2019-03-16T04:38:02.093Z,9.00
2019-03-16T04:40:28.844Z,9.30
2019-03-16T04:42:55.616Z,9.60
2019-03-16T04:45:22.361Z,9.80
2019-03-16T04:47:49.093Z,9.70
2019-03-16T04:50:16.045Z,9.00
2019-03-16T04:52:43.045Z,8.70
2019-03-16T04:55:09.902Z,8.60
2019-03-16T04:57:36.749Z,9.10
2019-03-16T05:00:04.745Z,9.50
2019-03-16T05:02:31.477Z,9.50
2019-03-16T05:04:58.250Z,9.50
2019-03-16T05:07:25.006Z,9.50
2019-03-16T05:09:53.505Z,9.50
2019-03-16T05:12:20.609Z,9.40
2019-03-16T05:14:47.963Z,9.40
2019-03-16T05:17:14.949Z,9.40
2019-03-16T05:19:41.718Z,9.30
2019-03-16T05:22:08.461Z,9.30
2019-03-16T05:24:35.344Z,8.70
2019-03-16T05:27:02.193Z,8.70
2019-03-16T05:29:29.207Z,8.70
2019-03-16T05:31:55.949Z,9.20
2019-03-16T05:34:22.785Z,9.30
2019-03-16T05:36:49.536Z,9.30
2019-03-16T05:41:43.514Z,9.40
2019-03-16T05:44:10.245Z,9.30
2019-03-16T05:46:36.997Z,9.30
2019-03-16T05:49:03.958Z,9.30
2019-03-16T05:51:30.701Z,9.30
2019-03-16T05:53:57.453Z,9.30
2019-03-16T05:56:24.256Z,9.30
2019-03-16T05:58:51.003Z,9.40
2019-03-16T06:01:17.739Z,9.40
2019-03-16T06:03:44.496Z,9.40
2019-03-16T06:06:11.251Z,9.40
2019-03-16T06:08:38.069Z,9.40
2019-03-16T06:11:04.927Z,9.30
2019-03-16T06:13:32.193Z,9.20
2019-03-16T06:15:58.920Z,9.20
2019-03-16T06:18:25.695Z,9.20
2019-03-16T06:20:52.454Z,9.30
2019-03-16T06:23:19.204Z,9.30
2019-03-16T06:25:46.065Z,9.30
2019-03-16T06:28:12.832Z,9.40
2019-03-16T06:30:39.566Z,9.30
2019-03-16T06:33:06.341Z,9.40
2019-03-16T06:35:33.186Z,9.40
2019-03-16T06:38:00.306Z,9.40
2019-03-16T06:40:27.045Z,9.40
2019-03-16T06:42:53.788Z,9.40
2019-03-16T06:45:20.627Z,9.40
2019-03-16T06:47:47.374Z,9.40
2019-03-16T06:50:14.217Z,9.50
2019-03-16T06:52:40.962Z,9.50
2019-03-16T06:55:08.018Z,9.50
2019-03-16T06:57:34.765Z,9.50
2019-03-16T07:00:01.609Z,9.50
2019-03-16T07:02:28.341Z,9.60
2019-03-16T07:04:55.073Z,9.60
2019-03-16T07:07:21.817Z,9.60
2019-03-16T07:09:48.588Z,9.60
2019-03-16T07:26:56.968Z,9.70
2019-03-16T07:29:23.727Z,9.70
2019-03-16T07:31:50.458Z,9.60
2019-03-16T07:34:17.245Z,10.00
2019-03-16T07:36:43.969Z,9.70
2019-03-16T07:39:10.716Z,9.70
2019-03-16T07:41:37.687Z,9.60
2019-03-16T07:46:31.569Z,9.80
2019-03-16T07:48:58.823Z,9.80
2019-03-16T07:51:25.572Z,9.80
2019-03-16T07:53:52.321Z,9.80
2019-03-16T07:56:19.067Z,9.70
2019-03-16T07:58:45.819Z,9.80
2019-03-16T08:01:12.698Z,9.80
2019-03-16T08:03:39.434Z,9.80
2019-03-16T08:06:06.263Z,9.80
2019-03-16T08:08:33.017Z,9.80
2019-03-16T08:10:59.997Z,9.70
2019-03-16T08:13:26.745Z,9.70
2019-03-16T08:15:53.540Z,9.70
2019-03-16T08:18:20.272Z,9.60
2019-03-16T08:20:47.054Z,9.60
2019-03-16T08:23:13.801Z,9.70
2019-03-16T08:25:40.569Z,9.70
2019-03-16T08:28:07.308Z,9.70
2019-03-16T08:30:34.045Z,9.80
2019-03-16T08:35:27.722Z,9.80
2019-03-16T08:37:54.485Z,9.90
2019-03-16T08:40:21.224Z,9.90
2019-03-16T08:42:48.065Z,9.90
2019-03-16T08:45:14.969Z,9.90
2019-03-16T08:47:41.710Z,10.00
2019-03-16T08:50:09.279Z,10.00
2019-03-16T08:52:36.090Z,10.00
2019-03-16T08:55:03.032Z,10.10
2019-03-16T08:57:29.879Z,10.10
2019-03-16T08:59:57.358Z,10.20
2019-03-16T09:02:24.350Z,10.20
2019-03-16T09:04:51.225Z,10.20
2019-03-16T09:07:18.226Z,10.20
2019-03-16T09:09:45.095Z,10.20
2019-03-16T09:12:11.837Z,10.20
2019-03-16T09:14:38.861Z,10.20
2019-03-16T09:17:05.617Z,10.20
2019-03-16T09:19:32.468Z,10.20
2019-03-16T09:26:53.030Z,10.20
2019-03-16T09:31:47.827Z,10.20
2019-03-16T09:34:14.565Z,10.20
2019-03-16T09:39:08.597Z,10.20
2019-03-16T09:41:35.692Z,10.30
2019-03-16T09:44:04.234Z,10.40
2019-03-16T09:46:31.301Z,10.60
2019-03-16T09:48:58.085Z,10.80
2019-03-16T09:53:51.713Z,10.70
2019-03-16T09:56:18.474Z,10.70
2019-03-16T10:01:15.167Z,11.20
2019-03-16T10:03:40.997Z,11.20
2019-03-16T10:06:08.040Z,11.20
2019-03-16T10:11:01.661Z,11.00
2019-03-16T10:15:55.641Z,10.60
2019-03-16T10:18:22.374Z,10.30
2019-03-16T10:20:49.134Z,10.40
2019-03-16T10:23:15.882Z,10.50
2019-03-16T10:25:42.632Z,10.30
2019-03-16T10:28:09.365Z,10.30
2019-03-16T10:30:36.385Z,10.30
2019-03-16T10:33:03.240Z,10.30
2019-03-16T10:35:29.990Z,10.20
2019-03-16T10:37:56.724Z,10.20
2019-03-16T10:40:23.608Z,10.20
2019-03-16T10:42:50.342Z,10.20
2019-03-16T10:47:43.969Z,10.20
2019-03-16T10:50:10.855Z,10.40
2019-03-16T10:52:37.598Z,10.50
2019-03-16T10:55:04.840Z,10.60
2019-03-16T10:57:31.637Z,10.50
2019-03-16T10:59:58.377Z,10.40
2019-03-16T11:02:25.159Z,10.30
2019-03-16T11:04:51.982Z,10.30
2019-03-16T11:12:13.022Z,10.20
2019-03-16T11:14:41.187Z,10.10
2019-03-16T11:17:08.280Z,10.10
2019-03-16T11:19:35.041Z,10.20
2019-03-16T11:22:01.918Z,10.10
2019-03-16T11:24:28.657Z,10.20
2019-03-16T11:26:55.404Z,10.50
2019-03-16T11:29:22.255Z,10.50
2019-03-16T11:36:42.989Z,11.10
2019-03-16T11:44:06.390Z,10.90
2019-03-16T11:46:33.532Z,12.00
2019-03-16T11:49:00.265Z,10.90
2019-03-16T11:53:53.892Z,11.20
2019-03-16T11:56:20.674Z,11.10
2019-03-16T12:18:23.584Z,12.30
2019-03-16T12:20:50.382Z,12.20
2019-03-16T12:25:44.057Z,11.70
2019-03-16T12:30:37.698Z,11.40
2019-03-16T12:33:04.689Z,11.50
2019-03-16T12:35:31.441Z,12.00
2019-03-16T12:37:58.242Z,12.90
2019-03-16T12:40:25.093Z,13.10
2019-03-16T12:50:14.780Z,14.30
2019-03-16T12:55:08.829Z,14.30
2019-03-16T12:57:35.618Z,14.60
2019-03-16T13:12:17.872Z,15.50
2019-03-16T13:14:44.627Z,15.70
2019-03-16T13:17:11.365Z,15.10
2019-03-16T13:29:27.137Z,12.60
2019-03-16T13:31:53.906Z,12.50
2019-03-16T13:34:20.741Z,12.50
2019-03-16T13:36:47.495Z,16.60
2019-03-16T13:44:08.037Z,19.10
2019-03-16T13:49:01.668Z,15.50
2019-03-16T13:58:49.383Z,13.50
2019-03-16T14:01:16.129Z,13.10
2019-03-16T14:03:42.872Z,13.20
2019-03-16T14:06:10.327Z,13.10
2019-03-16T14:08:37.319Z,13.10
2019-03-16T14:11:04.058Z,12.90
2019-03-16T14:13:31.223Z,13.00
2019-03-16T14:15:58.067Z,13.00
2019-03-16T14:18:24.807Z,12.90
2019-03-16T14:20:51.567Z,12.90
2019-03-16T14:23:18.305Z,12.80
2019-03-16T14:28:16.265Z,12.90
2019-03-16T14:30:45.155Z,12.90
2019-03-16T14:33:11.764Z,12.80
2019-03-16T14:38:05.406Z,12.80
2019-03-16T14:40:32.338Z,12.50
2019-03-16T14:42:59.181Z,12.60
2019-03-16T14:45:26.547Z,13.10
2019-03-16T14:47:53.308Z,13.20
2019-03-16T14:50:20.253Z,13.00
2019-03-16T14:52:47.116Z,13.00
2019-03-16T14:55:14.426Z,13.00
2019-03-16T14:57:41.320Z,13.20
2019-03-16T15:00:09.988Z,13.20
2019-03-16T15:02:36.738Z,13.40
2019-03-16T15:05:03.781Z,14.80
2019-03-16T15:07:30.665Z,14.40
2019-03-16T15:09:57.401Z,14.60
2019-03-16T15:12:24.159Z,14.60
2019-03-16T15:14:50.921Z,16.50
2019-03-16T15:17:17.664Z,17.40
2019-03-16T15:19:44.422Z,17.10
2019-03-16T15:22:12.286Z,15.80
2019-03-16T15:27:06.577Z,13.70
2019-03-16T15:29:33.612Z,13.30
2019-03-16T15:41:47.820Z,13.20
2019-03-16T15:44:14.576Z,12.90
2019-03-16T15:46:41.557Z,13.00
2019-03-16T15:49:08.333Z,12.90
2019-03-16T15:51:35.069Z,12.60
2019-03-16T15:54:01.815Z,12.50
2019-03-16T15:56:28.549Z,12.30
2019-03-16T15:58:55.308Z,12.30
2019-03-16T16:01:22.149Z,12.30
2019-03-16T16:03:49.313Z,12.20
2019-03-16T16:06:16.573Z,12.20
2019-03-16T16:08:43.445Z,12.10
2019-03-16T16:11:10.312Z,12.10
2019-03-16T16:13:37.614Z,12.20
2019-03-16T16:16:04.481Z,12.20
2019-03-16T16:18:31.441Z,12.10
2019-03-16T16:20:58.174Z,12.10
2019-03-16T16:23:25.173Z,12.10
2019-03-16T16:25:52.028Z,12.00
2019-03-16T16:28:19.105Z,12.00
2019-03-16T16:30:45.943Z,12.00
2019-03-16T16:33:12.762Z,12.00
2019-03-16T16:35:39.571Z,12.00
2019-03-16T16:38:06.375Z,12.10
2019-03-16T16:40:33.251Z,12.00
2019-03-16T16:43:00.018Z,11.90
2019-03-16T16:45:27.208Z,11.90
2019-03-16T16:47:53.973Z,11.90
2019-03-16T16:52:49.715Z,11.70
2019-03-16T16:55:16.777Z,11.50
2019-03-16T16:57:43.637Z,11.60
2019-03-16T17:00:12.668Z,11.70
2019-03-16T17:02:39.611Z,11.50
2019-03-16T17:05:06.573Z,11.30
2019-03-16T17:07:33.405Z,11.10
2019-03-16T17:10:00.436Z,11.00
2019-03-16T17:12:27.179Z,10.80
2019-03-16T17:14:54.034Z,10.70
2019-03-16T17:17:20.789Z,10.60
2019-03-16T17:19:47.572Z,10.50
2019-03-16T17:22:14.320Z,10.50
2019-03-16T17:24:41.085Z,10.60
2019-03-16T17:27:08.100Z,10.50
2019-03-16T17:29:34.890Z,10.50
2019-03-16T17:32:01.661Z,10.40
2019-03-16T17:34:28.397Z,10.40
2019-03-16T17:36:55.806Z,10.20
2019-03-16T17:39:47.595Z,10.00
2019-03-16T17:42:14.420Z,9.90
2019-03-16T17:44:41.621Z,9.80
2019-03-16T17:47:08.697Z,9.60
2019-03-16T17:49:35.753Z,9.50
2019-03-16T17:52:02.686Z,9.30
2019-03-16T17:54:29.461Z,9.10
2019-03-16T17:56:56.229Z,9.00
2019-03-16T17:59:23.965Z,8.90
2019-03-16T18:01:54.876Z,8.90
2019-03-16T18:04:28.086Z,8.70
2019-03-16T18:08:09.192Z,8.60
2019-03-16T18:10:36.229Z,8.50
2019-03-16T18:13:03.401Z,8.20
2019-03-16T18:15:30.205Z,8.20
2019-03-16T18:17:56.976Z,8.20
2019-03-16T18:20:23.861Z,8.10
2019-03-16T18:22:50.606Z,7.90
2019-03-16T18:25:17.693Z,7.40
2019-03-16T18:27:44.668Z,7.70
2019-03-16T18:30:12.791Z,7.20
2019-03-16T18:32:58.195Z,7.60
2019-03-16T18:35:25.033Z,7.60
2019-03-16T18:37:51.896Z,7.50
2019-03-16T18:40:18.664Z,7.40
2019-03-16T18:42:45.513Z,7.40
2019-03-16T18:45:13.501Z,7.30
2019-03-16T18:47:40.269Z,7.30
2019-03-16T18:50:07.229Z,7.30
2019-03-16T18:52:33.964Z,7.20
2019-03-16T18:55:00.715Z,8.80
2019-03-16T18:57:27.714Z,7.10
2019-03-16T19:19:33.303Z,6.50
2019-03-16T19:22:00.046Z,6.50
2019-03-16T19:24:26.925Z,6.30
2019-03-16T19:26:53.664Z,6.20
2019-03-16T19:29:20.424Z,6.20
2019-03-16T19:31:47.405Z,6.00
2019-03-16T19:34:14.506Z,6.00
2019-03-16T19:36:41.250Z,6.00
2019-03-16T19:39:08.001Z,5.80
2019-03-16T19:41:34.843Z,5.70
2019-03-16T19:44:01.577Z,5.70
2019-03-16T19:46:28.456Z,5.70
2019-03-16T19:58:44.053Z,5.40
2019-03-16T20:01:11.046Z,5.30
2019-03-16T20:03:38.053Z,5.20
2019-03-16T20:06:24.816Z,5.10
2019-03-16T20:08:41.290Z,5.10
2019-03-16T20:11:08.203Z,5.00
2019-03-16T20:13:34.953Z,4.90
2019-03-16T20:16:01.908Z,4.90
2019-03-16T20:18:28.921Z,5.00
2019-03-16T20:20:56.021Z,4.90
2019-03-16T20:23:23.749Z,4.90
2019-03-16T20:25:50.524Z,5.00
2019-03-16T20:28:18.874Z,5.00
2019-03-16T20:30:48.330Z,5.00
2019-03-16T20:33:18.788Z,5.00
2019-03-16T20:35:46.146Z,4.90
2019-03-16T20:38:13.962Z,4.90
2019-03-16T20:40:41.757Z,5.00
2019-03-16T20:43:31.549Z,4.90
2019-03-16T20:45:59.060Z,4.90
2019-03-16T20:48:59.682Z,4.70
2019-03-16T20:51:26.941Z,4.70
2019-03-16T20:53:57.456Z,4.60
2019-03-16T20:57:01.365Z,4.60
2019-03-16T20:59:32.438Z,4.50
2019-03-16T21:02:03.011Z,4.50
2019-03-16T21:04:31.035Z,4.30
2019-03-16T21:09:41.229Z,4.20
2019-03-16T21:12:10.485Z,4.10
2019-03-16T21:14:38.066Z,4.20
2019-03-16T21:17:06.313Z,3.90
2019-03-16T21:19:33.056Z,4.00
2019-03-16T21:27:17.515Z,4.00
2019-03-16T21:29:44.299Z,3.90
2019-03-16T21:32:11.095Z,3.90
2019-03-16T21:34:38.158Z,3.90
2019-03-16T21:37:05.095Z,3.80
2019-03-16T21:39:32.295Z,3.70
2019-03-16T21:42:02.894Z,3.70
2019-03-16T21:44:29.975Z,3.70
2019-03-16T21:46:57.577Z,3.60
2019-03-16T21:49:24.515Z,3.60
2019-03-16T21:51:51.482Z,3.60
2019-03-16T21:54:18.508Z,3.60
2019-03-16T21:56:45.419Z,3.60
2019-03-16T21:59:12.180Z,3.70
2019-03-16T22:01:39.045Z,3.60
2019-03-16T22:04:05.893Z,3.70
2019-03-16T22:06:32.652Z,3.80
2019-03-16T22:08:59.432Z,3.80
2019-03-16T22:11:26.236Z,3.80
2019-03-16T22:13:52.985Z,3.80
2019-03-16T22:16:19.782Z,3.20
2019-03-16T22:18:46.717Z,3.60
2019-03-16T22:21:13.492Z,3.60
2019-03-16T22:23:40.393Z,3.40
2019-03-16T22:26:07.366Z,3.30
2019-03-16T22:28:34.472Z,3.30
2019-03-16T22:31:01.247Z,3.20
2019-03-16T22:33:28.351Z,3.10
2019-03-16T22:35:55.097Z,3.10
2019-03-16T22:38:22.358Z,2.90
2019-03-16T22:40:49.233Z,2.80
2019-03-16T22:43:16.029Z,2.70
2019-03-16T22:45:42.822Z,2.70
2019-03-16T22:48:09.588Z,2.70
2019-03-16T22:50:36.554Z,2.70
2019-03-16T22:53:03.379Z,2.60
2019-03-16T22:55:30.137Z,2.70
2019-03-16T22:57:57.473Z,2.70
2019-03-16T23:00:29.661Z,2.60
2019-03-16T23:02:56.485Z,2.70
2019-03-16T23:05:23.907Z,2.70
2019-03-16T23:07:50.805Z,2.70
2019-03-16T23:10:17.870Z,2.80
2019-03-16T23:12:44.906Z,2.80
2019-03-16T23:15:12.119Z,2.70
2019-03-16T23:17:39.235Z,2.60
2019-03-16T23:20:06.328Z,2.60
2019-03-16T23:22:33.194Z,2.70
2019-03-16T23:25:00.402Z,2.70
2019-03-16T23:27:27.203Z,2.70
2019-03-16T23:29:53.969Z,2.60
2019-03-16T23:32:21.178Z,2.60
2019-03-16T23:34:48.181Z,2.60
2019-03-16T23:37:15.184Z,2.70
2019-03-16T23:39:41.955Z,2.70
2019-03-16T23:42:08.793Z,2.60
2019-03-16T23:44:35.560Z,2.70
2019-03-16T23:47:02.839Z,2.70
2019-03-16T23:49:29.835Z,2.80
2019-03-16T23:51:56.955Z,2.80
2019-03-16T23:54:24.035Z,2.70
2019-03-16T23:56:51.154Z,2.70
2019-03-16T23:59:18.212Z,2.70
